sensor_id;sensor_type;location;lat;lon;timestamp;P1;durP1;ratioP1;P2;durP2;ratioP2
9467;SDS011;4772;52.382;9.752;2023-11-19T00:00:10;2.60;;;2.40;;
9467;SDS011;4772;52.382;9.752;2023-11-19T00:02:40;2.73;;;2.53;;
9467;SDS011;4772;52.382;9.752;2023-11-19T00:05:06;2.57;;;2.37;;
9467;SDS011;4772;52.382;9.752;2023-11-19T00:07:36;2.60;;;2.30;;
9467;SDS011;4772;52.382;9.752;2023-11-19T00:10:06;2.60;;;2.40;;
9467;SDS011;4772;52.382;9.752;2023-11-19T00:12:36;2.43;;;2.23;;
9467;SDS011;4772;52.382;9.752;2023-11-19T00:15:02;2.40;;;2.20;;
9467;SDS011;4772;52.382;9.752;2023-11-19T00:17:28;2.77;;;2.57;;
9467;SDS011;4772;52.382;9.752;2023-11-19T00:19:54;2.70;;;2.50;;
9467;SDS011;4772;52.382;9.752;2023-11-19T00:22:20;2.53;;;2.37;;
9467;SDS011;4772;52.382;9.752;2023-11-19T00:24:47;2.40;;;2.20;;
9467;SDS011;4772;52.382;9.752;2023-11-19T00:27:13;2.67;;;2.47;;
9467;SDS011;4772;52.382;9.752;2023-11-19T00:29:39;3.07;;;2.63;;
9467;SDS011;4772;52.382;9.752;2023-11-19T00:32:05;2.60;;;2.40;;
9467;SDS011;4772;52.382;9.752;2023-11-19T00:34:32;2.60;;;2.40;;
9467;SDS011;4772;52.382;9.752;2023-11-19T00:36:58;2.30;;;2.10;;
9467;SDS011;4772;52.382;9.752;2023-11-19T00:39:24;2.60;;;2.40;;
9467;SDS011;4772;52.382;9.752;2023-11-19T00:41:50;2.80;;;2.60;;
9467;SDS011;4772;52.382;9.752;2023-11-19T00:44:16;3.90;;;2.60;;
9467;SDS011;4772;52.382;9.752;2023-11-19T00:46:42;2.87;;;2.30;;
9467;SDS011;4772;52.382;9.752;2023-11-19T00:49:08;3.40;;;2.47;;
9467;SDS011;4772;52.382;9.752;2023-11-19T00:51:36;2.27;;;2.17;;
9467;SDS011;4772;52.382;9.752;2023-11-19T00:54:02;2.53;;;2.33;;
9467;SDS011;4772;52.382;9.752;2023-11-19T00:56:29;2.53;;;2.33;;
9467;SDS011;4772;52.382;9.752;2023-11-19T00:58:55;3.83;;;2.40;;
9467;SDS011;4772;52.382;9.752;2023-11-19T01:01:21;2.70;;;2.50;;
9467;SDS011;4772;52.382;9.752;2023-11-19T01:03:47;2.57;;;2.27;;
9467;SDS011;4772;52.382;9.752;2023-11-19T01:06:13;2.63;;;2.43;;
9467;SDS011;4772;52.382;9.752;2023-11-19T01:08:42;2.57;;;2.37;;
9467;SDS011;4772;52.382;9.752;2023-11-19T01:11:18;3.43;;;2.20;;
9467;SDS011;4772;52.382;9.752;2023-11-19T01:13:45;2.40;;;2.20;;
9467;SDS011;4772;52.382;9.752;2023-11-19T01:16:11;2.53;;;2.33;;
9467;SDS011;4772;52.382;9.752;2023-11-19T01:18:38;2.20;;;2.00;;
9467;SDS011;4772;52.382;9.752;2023-11-19T01:21:04;2.93;;;2.30;;
9467;SDS011;4772;52.382;9.752;2023-11-19T01:23:30;2.23;;;2.03;;
9467;SDS011;4772;52.382;9.752;2023-11-19T01:25:57;2.43;;;2.23;;
9467;SDS011;4772;52.382;9.752;2023-11-19T01:28:23;2.43;;;2.00;;
9467;SDS011;4772;52.382;9.752;2023-11-19T01:30:52;2.30;;;2.10;;
9467;SDS011;4772;52.382;9.752;2023-11-19T01:33:18;4.57;;;2.10;;
9467;SDS011;4772;52.382;9.752;2023-11-19T01:35:44;2.00;;;1.90;;
9467;SDS011;4772;52.382;9.752;2023-11-19T01:38:10;2.10;;;1.90;;
9467;SDS011;4772;52.382;9.752;2023-11-19T01:40:36;2.20;;;2.00;;
9467;SDS011;4772;52.382;9.752;2023-11-19T01:43:02;1.80;;;1.70;;
9467;SDS011;4772;52.382;9.752;2023-11-19T01:45:29;2.00;;;1.90;;
9467;SDS011;4772;52.382;9.752;2023-11-19T01:47:58;1.80;;;1.70;;
9467;SDS011;4772;52.382;9.752;2023-11-19T01:50:24;1.87;;;1.77;;
9467;SDS011;4772;52.382;9.752;2023-11-19T01:52:54;1.70;;;1.60;;
9467;SDS011;4772;52.382;9.752;2023-11-19T01:55:22;1.80;;;1.70;;
9467;SDS011;4772;52.382;9.752;2023-11-19T01:57:49;2.10;;;1.90;;
9467;SDS011;4772;52.382;9.752;2023-11-19T02:00:16;2.77;;;1.90;;
9467;SDS011;4772;52.382;9.752;2023-11-19T02:02:42;2.00;;;1.90;;
9467;SDS011;4772;52.382;9.752;2023-11-19T02:05:12;2.00;;;1.80;;
9467;SDS011;4772;52.382;9.752;2023-11-19T02:07:39;1.70;;;1.60;;
9467;SDS011;4772;52.382;9.752;2023-11-19T02:10:05;1.90;;;1.80;;
9467;SDS011;4772;52.382;9.752;2023-11-19T02:12:37;2.37;;;1.80;;
9467;SDS011;4772;52.382;9.752;2023-11-19T02:15:03;2.00;;;1.63;;
9467;SDS011;4772;52.382;9.752;2023-11-19T02:17:30;2.03;;;1.87;;
9467;SDS011;4772;52.382;9.752;2023-11-19T02:19:56;2.33;;;1.60;;
9467;SDS011;4772;52.382;9.752;2023-11-19T02:22:23;1.30;;;1.20;;
9467;SDS011;4772;52.382;9.752;2023-11-19T02:24:51;1.83;;;1.73;;
9467;SDS011;4772;52.382;9.752;2023-11-19T02:27:27;1.60;;;1.50;;
9467;SDS011;4772;52.382;9.752;2023-11-19T02:29:55;1.53;;;1.43;;
9467;SDS011;4772;52.382;9.752;2023-11-19T02:32:21;1.50;;;1.40;;
9467;SDS011;4772;52.382;9.752;2023-11-19T02:34:47;1.47;;;1.37;;
9467;SDS011;4772;52.382;9.752;2023-11-19T02:37:13;1.27;;;1.17;;
9467;SDS011;4772;52.382;9.752;2023-11-19T02:39:39;1.93;;;1.40;;
9467;SDS011;4772;52.382;9.752;2023-11-19T02:42:07;1.20;;;1.20;;
9467;SDS011;4772;52.382;9.752;2023-11-19T02:44:33;1.20;;;1.10;;
9467;SDS011;4772;52.382;9.752;2023-11-19T02:46:59;1.40;;;1.27;;
9467;SDS011;4772;52.382;9.752;2023-11-19T02:49:26;1.10;;;1.10;;
9467;SDS011;4772;52.382;9.752;2023-11-19T02:51:52;0.93;;;0.93;;
9467;SDS011;4772;52.382;9.752;2023-11-19T02:54:18;1.00;;;1.00;;
9467;SDS011;4772;52.382;9.752;2023-11-19T02:56:44;1.60;;;1.20;;
9467;SDS011;4772;52.382;9.752;2023-11-19T02:59:13;1.20;;;1.20;;
9467;SDS011;4772;52.382;9.752;2023-11-19T03:01:52;1.40;;;1.30;;
9467;SDS011;4772;52.382;9.752;2023-11-19T03:04:18;1.40;;;1.30;;
9467;SDS011;4772;52.382;9.752;2023-11-19T03:06:45;1.10;;;1.00;;
9467;SDS011;4772;52.382;9.752;2023-11-19T03:09:11;1.20;;;1.10;;
9467;SDS011;4772;52.382;9.752;2023-11-19T03:11:37;1.40;;;1.30;;
9467;SDS011;4772;52.382;9.752;2023-11-19T03:14:04;1.60;;;1.50;;
9467;SDS011;4772;52.382;9.752;2023-11-19T03:16:30;1.40;;;1.30;;
9467;SDS011;4772;52.382;9.752;2023-11-19T03:18:56;1.03;;;1.03;;
9467;SDS011;4772;52.382;9.752;2023-11-19T03:21:28;1.57;;;1.40;;
9467;SDS011;4772;52.382;9.752;2023-11-19T03:23:54;1.50;;;1.40;;
9467;SDS011;4772;52.382;9.752;2023-11-19T03:26:21;1.20;;;1.20;;
9467;SDS011;4772;52.382;9.752;2023-11-19T03:28:47;1.50;;;1.40;;
9467;SDS011;4772;52.382;9.752;2023-11-19T03:31:13;1.60;;;1.50;;
9467;SDS011;4772;52.382;9.752;2023-11-19T03:33:39;2.10;;;1.50;;
9467;SDS011;4772;52.382;9.752;2023-11-19T03:36:05;2.23;;;1.60;;
9467;SDS011;4772;52.382;9.752;2023-11-19T03:38:32;1.60;;;1.50;;
9467;SDS011;4772;52.382;9.752;2023-11-19T03:40:58;1.67;;;1.57;;
9467;SDS011;4772;52.382;9.752;2023-11-19T03:43:24;3.57;;;1.80;;
9467;SDS011;4772;52.382;9.752;2023-11-19T03:45:50;1.77;;;1.67;;
9467;SDS011;4772;52.382;9.752;2023-11-19T03:48:16;2.00;;;1.80;;
9467;SDS011;4772;52.382;9.752;2023-11-19T03:50:42;2.53;;;1.73;;
9467;SDS011;4772;52.382;9.752;2023-11-19T03:53:08;1.80;;;1.70;;
9467;SDS011;4772;52.382;9.752;2023-11-19T03:55:34;1.93;;;1.80;;
9467;SDS011;4772;52.382;9.752;2023-11-19T03:58:00;2.20;;;2.00;;
9467;SDS011;4772;52.382;9.752;2023-11-19T04:00:26;2.30;;;2.10;;
9467;SDS011;4772;52.382;9.752;2023-11-19T04:02:52;2.17;;;2.00;;
9467;SDS011;4772;52.382;9.752;2023-11-19T04:05:18;2.33;;;2.13;;
9467;SDS011;4772;52.382;9.752;2023-11-19T04:07:44;2.30;;;2.10;;
9467;SDS011;4772;52.382;9.752;2023-11-19T04:10:10;2.23;;;2.13;;
9467;SDS011;4772;52.382;9.752;2023-11-19T04:12:36;2.67;;;2.30;;
9467;SDS011;4772;52.382;9.752;2023-11-19T04:15:02;2.67;;;2.47;;
9467;SDS011;4772;52.382;9.752;2023-11-19T04:17:29;2.93;;;2.73;;
9467;SDS011;4772;52.382;9.752;2023-11-19T04:19:55;4.03;;;2.77;;
9467;SDS011;4772;52.382;9.752;2023-11-19T04:22:21;3.50;;;2.87;;
9467;SDS011;4772;52.382;9.752;2023-11-19T04:24:47;5.30;;;2.97;;
9467;SDS011;4772;52.382;9.752;2023-11-19T04:27:13;3.17;;;2.93;;
9467;SDS011;4772;52.382;9.752;2023-11-19T04:29:39;3.90;;;3.43;;
9467;SDS011;4772;52.382;9.752;2023-11-19T04:32:05;3.93;;;3.63;;
9467;SDS011;4772;52.382;9.752;2023-11-19T04:34:32;3.70;;;3.40;;
9467;SDS011;4772;52.382;9.752;2023-11-19T04:36:58;4.90;;;3.80;;
9467;SDS011;4772;52.382;9.752;2023-11-19T04:39:28;4.20;;;3.80;;
9467;SDS011;4772;52.382;9.752;2023-11-19T04:41:54;4.40;;;4.00;;
9467;SDS011;4772;52.382;9.752;2023-11-19T04:44:20;5.33;;;3.90;;
9467;SDS011;4772;52.382;9.752;2023-11-19T04:46:47;6.17;;;4.53;;
9467;SDS011;4772;52.382;9.752;2023-11-19T04:49:13;4.77;;;4.17;;
9467;SDS011;4772;52.382;9.752;2023-11-19T04:51:43;5.77;;;4.70;;
9467;SDS011;4772;52.382;9.752;2023-11-19T04:54:09;6.03;;;4.93;;
9467;SDS011;4772;52.382;9.752;2023-11-19T04:56:36;5.90;;;5.07;;
9467;SDS011;4772;52.382;9.752;2023-11-19T04:59:02;7.83;;;5.40;;
9467;SDS011;4772;52.382;9.752;2023-11-19T05:01:28;7.30;;;5.40;;
9467;SDS011;4772;52.382;9.752;2023-11-19T05:03:56;9.47;;;7.07;;
9467;SDS011;4772;52.382;9.752;2023-11-19T05:06:28;7.73;;;6.17;;
9467;SDS011;4772;52.382;9.752;2023-11-19T05:08:55;9.53;;;5.70;;
9467;SDS011;4772;52.382;9.752;2023-11-19T05:11:21;10.30;;;5.80;;
9467;SDS011;4772;52.382;9.752;2023-11-19T05:13:47;10.83;;;6.60;;
9467;SDS011;4772;52.382;9.752;2023-11-19T05:16:13;8.83;;;6.77;;
9467;SDS011;4772;52.382;9.752;2023-11-19T05:18:40;7.93;;;7.13;;
9467;SDS011;4772;52.382;9.752;2023-11-19T05:21:06;11.07;;;6.87;;
9467;SDS011;4772;52.382;9.752;2023-11-19T05:23:33;9.73;;;7.53;;
9467;SDS011;4772;52.382;9.752;2023-11-19T05:25:59;13.70;;;8.33;;
9467;SDS011;4772;52.382;9.752;2023-11-19T05:28:25;9.93;;;7.63;;
9467;SDS011;4772;52.382;9.752;2023-11-19T05:30:51;11.80;;;8.57;;
9467;SDS011;4772;52.382;9.752;2023-11-19T05:33:17;11.47;;;8.53;;
9467;SDS011;4772;52.382;9.752;2023-11-19T05:35:43;14.30;;;9.07;;
9467;SDS011;4772;52.382;9.752;2023-11-19T05:38:09;13.93;;;9.53;;
9467;SDS011;4772;52.382;9.752;2023-11-19T05:40:35;17.10;;;10.70;;
9467;SDS011;4772;52.382;9.752;2023-11-19T05:43:03;21.43;;;12.03;;
9467;SDS011;4772;52.382;9.752;2023-11-19T05:45:30;18.23;;;11.77;;
9467;SDS011;4772;52.382;9.752;2023-11-19T05:47:56;16.73;;;12.27;;
9467;SDS011;4772;52.382;9.752;2023-11-19T05:50:22;20.27;;;13.00;;
9467;SDS011;4772;52.382;9.752;2023-11-19T05:52:48;16.97;;;13.50;;
9467;SDS011;4772;52.382;9.752;2023-11-19T05:55:14;18.97;;;14.27;;
9467;SDS011;4772;52.382;9.752;2023-11-19T05:57:40;21.77;;;12.93;;
9467;SDS011;4772;52.382;9.752;2023-11-19T06:00:07;17.73;;;12.23;;
9467;SDS011;4772;52.382;9.752;2023-11-19T06:02:33;18.67;;;11.97;;
9467;SDS011;4772;52.382;9.752;2023-11-19T06:05:00;17.40;;;12.07;;
9467;SDS011;4772;52.382;9.752;2023-11-19T06:07:26;16.50;;;11.00;;
9467;SDS011;4772;52.382;9.752;2023-11-19T06:09:53;18.40;;;10.77;;
9467;SDS011;4772;52.382;9.752;2023-11-19T06:12:19;17.00;;;9.97;;
9467;SDS011;4772;52.382;9.752;2023-11-19T06:14:45;12.53;;;9.10;;
9467;SDS011;4772;52.382;9.752;2023-11-19T06:17:11;18.00;;;9.83;;
9467;SDS011;4772;52.382;9.752;2023-11-19T06:19:37;19.87;;;9.90;;
9467;SDS011;4772;52.382;9.752;2023-11-19T06:22:03;17.77;;;9.00;;
9467;SDS011;4772;52.382;9.752;2023-11-19T06:24:29;15.43;;;7.30;;
9467;SDS011;4772;52.382;9.752;2023-11-19T06:26:55;14.13;;;7.37;;
9467;SDS011;4772;52.382;9.752;2023-11-19T06:29:21;14.37;;;7.60;;
9467;SDS011;4772;52.382;9.752;2023-11-19T06:31:47;16.00;;;6.90;;
9467;SDS011;4772;52.382;9.752;2023-11-19T06:34:14;16.10;;;7.47;;
9467;SDS011;4772;52.382;9.752;2023-11-19T06:36:40;16.67;;;7.30;;
9467;SDS011;4772;52.382;9.752;2023-11-19T06:39:07;15.50;;;7.57;;
9467;SDS011;4772;52.382;9.752;2023-11-19T06:41:34;18.20;;;6.90;;
9467;SDS011;4772;52.382;9.752;2023-11-19T06:44:03;15.50;;;6.50;;
9467;SDS011;4772;52.382;9.752;2023-11-19T06:46:30;11.73;;;5.90;;
9467;SDS011;4772;52.382;9.752;2023-11-19T06:48:56;14.07;;;5.40;;
9467;SDS011;4772;52.382;9.752;2023-11-19T06:51:22;17.40;;;5.17;;
9467;SDS011;4772;52.382;9.752;2023-11-19T06:53:49;15.23;;;5.00;;
9467;SDS011;4772;52.382;9.752;2023-11-19T06:56:22;19.83;;;6.03;;
9467;SDS011;4772;52.382;9.752;2023-11-19T06:58:48;15.30;;;5.97;;
9467;SDS011;4772;52.382;9.752;2023-11-19T07:01:14;15.67;;;5.43;;
9467;SDS011;4772;52.382;9.752;2023-11-19T07:03:41;12.80;;;5.00;;
9467;SDS011;4772;52.382;9.752;2023-11-19T07:06:07;19.50;;;5.57;;
9467;SDS011;4772;52.382;9.752;2023-11-19T07:08:33;17.87;;;5.10;;
9467;SDS011;4772;52.382;9.752;2023-11-19T07:10:59;16.67;;;5.10;;
9467;SDS011;4772;52.382;9.752;2023-11-19T07:13:25;13.57;;;4.83;;
9467;SDS011;4772;52.382;9.752;2023-11-19T07:15:52;18.47;;;5.37;;
9467;SDS011;4772;52.382;9.752;2023-11-19T07:18:18;17.07;;;5.00;;
9467;SDS011;4772;52.382;9.752;2023-11-19T07:20:47;13.47;;;5.10;;
9467;SDS011;4772;52.382;9.752;2023-11-19T07:23:12;20.47;;;5.33;;
9467;SDS011;4772;52.382;9.752;2023-11-19T07:25:42;21.23;;;4.73;;
9467;SDS011;4772;52.382;9.752;2023-11-19T07:28:08;18.80;;;4.70;;
9467;SDS011;4772;52.382;9.752;2023-11-19T07:30:35;13.20;;;4.50;;
9467;SDS011;4772;52.382;9.752;2023-11-19T07:33:01;14.43;;;3.87;;
9467;SDS011;4772;52.382;9.752;2023-11-19T07:35:29;17.43;;;4.03;;
9467;SDS011;4772;52.382;9.752;2023-11-19T07:37:58;15.97;;;4.33;;
9467;SDS011;4772;52.382;9.752;2023-11-19T07:40:24;22.87;;;4.60;;
9467;SDS011;4772;52.382;9.752;2023-11-19T07:42:50;19.67;;;4.33;;
9467;SDS011;4772;52.382;9.752;2023-11-19T07:45:16;15.67;;;4.47;;
9467;SDS011;4772;52.382;9.752;2023-11-19T07:47:43;16.60;;;4.93;;
9467;SDS011;4772;52.382;9.752;2023-11-19T07:50:12;20.00;;;4.53;;
9467;SDS011;4772;52.382;9.752;2023-11-19T07:52:41;16.80;;;4.23;;
9467;SDS011;4772;52.382;9.752;2023-11-19T07:55:07;21.80;;;4.67;;
9467;SDS011;4772;52.382;9.752;2023-11-19T07:57:33;19.80;;;4.57;;
9467;SDS011;4772;52.382;9.752;2023-11-19T07:59:59;17.67;;;5.27;;
9467;SDS011;4772;52.382;9.752;2023-11-19T08:02:26;17.00;;;4.57;;
9467;SDS011;4772;52.382;9.752;2023-11-19T08:04:53;16.07;;;4.07;;
9467;SDS011;4772;52.382;9.752;2023-11-19T08:07:20;21.73;;;4.83;;
9467;SDS011;4772;52.382;9.752;2023-11-19T08:09:47;22.03;;;5.13;;
9467;SDS011;4772;52.382;9.752;2023-11-19T08:12:16;23.83;;;4.93;;
9467;SDS011;4772;52.382;9.752;2023-11-19T08:14:42;23.13;;;4.97;;
9467;SDS011;4772;52.382;9.752;2023-11-19T08:17:09;14.97;;;4.20;;
9467;SDS011;4772;52.382;9.752;2023-11-19T08:19:35;18.97;;;4.93;;
9467;SDS011;4772;52.382;9.752;2023-11-19T08:22:01;20.77;;;4.83;;
9467;SDS011;4772;52.382;9.752;2023-11-19T08:24:27;20.67;;;4.77;;
9467;SDS011;4772;52.382;9.752;2023-11-19T08:26:53;17.67;;;4.80;;
9467;SDS011;4772;52.382;9.752;2023-11-19T08:29:19;24.43;;;4.97;;
9467;SDS011;4772;52.382;9.752;2023-11-19T08:31:46;17.67;;;4.43;;
9467;SDS011;4772;52.382;9.752;2023-11-19T08:34:14;18.53;;;4.80;;
9467;SDS011;4772;52.382;9.752;2023-11-19T08:36:40;23.33;;;5.27;;
9467;SDS011;4772;52.382;9.752;2023-11-19T08:39:06;20.40;;;5.13;;
9467;SDS011;4772;52.382;9.752;2023-11-19T08:41:33;22.67;;;5.17;;
9467;SDS011;4772;52.382;9.752;2023-11-19T08:43:59;23.57;;;4.77;;
9467;SDS011;4772;52.382;9.752;2023-11-19T08:46:26;25.17;;;5.10;;
9467;SDS011;4772;52.382;9.752;2023-11-19T08:48:52;20.93;;;5.73;;
9467;SDS011;4772;52.382;9.752;2023-11-19T08:51:21;23.70;;;6.27;;
9467;SDS011;4772;52.382;9.752;2023-11-19T08:53:47;19.33;;;4.83;;
9467;SDS011;4772;52.382;9.752;2023-11-19T08:56:12;22.30;;;5.20;;
9467;SDS011;4772;52.382;9.752;2023-11-19T08:58:39;25.40;;;4.93;;
9467;SDS011;4772;52.382;9.752;2023-11-19T09:01:05;18.37;;;4.83;;
9467;SDS011;4772;52.382;9.752;2023-11-19T09:03:31;16.10;;;4.67;;
9467;SDS011;4772;52.382;9.752;2023-11-19T09:05:58;21.13;;;5.07;;
9467;SDS011;4772;52.382;9.752;2023-11-19T09:08:25;27.97;;;5.43;;
9467;SDS011;4772;52.382;9.752;2023-11-19T09:10:51;20.03;;;5.20;;
9467;SDS011;4772;52.382;9.752;2023-11-19T09:13:17;19.30;;;4.97;;
9467;SDS011;4772;52.382;9.752;2023-11-19T09:15:43;24.53;;;5.53;;
9467;SDS011;4772;52.382;9.752;2023-11-19T09:18:09;23.80;;;5.17;;
9467;SDS011;4772;52.382;9.752;2023-11-19T09:20:35;18.13;;;4.40;;
9467;SDS011;4772;52.382;9.752;2023-11-19T09:23:04;23.17;;;5.60;;
9467;SDS011;4772;52.382;9.752;2023-11-19T09:25:30;27.23;;;5.50;;
9467;SDS011;4772;52.382;9.752;2023-11-19T09:27:56;22.97;;;5.60;;
9467;SDS011;4772;52.382;9.752;2023-11-19T09:30:22;19.53;;;5.20;;
9467;SDS011;4772;52.382;9.752;2023-11-19T09:32:48;22.23;;;5.23;;
9467;SDS011;4772;52.382;9.752;2023-11-19T09:35:14;23.10;;;4.93;;
9467;SDS011;4772;52.382;9.752;2023-11-19T09:37:41;21.97;;;5.10;;
9467;SDS011;4772;52.382;9.752;2023-11-19T09:40:07;22.57;;;6.40;;
9467;SDS011;4772;52.382;9.752;2023-11-19T09:42:44;22.67;;;5.37;;
9467;SDS011;4772;52.382;9.752;2023-11-19T09:45:13;25.77;;;5.87;;
9467;SDS011;4772;52.382;9.752;2023-11-19T09:47:44;18.57;;;4.90;;
9467;SDS011;4772;52.382;9.752;2023-11-19T09:50:17;21.00;;;5.33;;
9467;SDS011;4772;52.382;9.752;2023-11-19T09:52:44;23.10;;;5.43;;
9467;SDS011;4772;52.382;9.752;2023-11-19T09:55:10;20.47;;;5.20;;
9467;SDS011;4772;52.382;9.752;2023-11-19T09:57:37;27.73;;;5.37;;
9467;SDS011;4772;52.382;9.752;2023-11-19T10:00:04;22.67;;;5.60;;
9467;SDS011;4772;52.382;9.752;2023-11-19T10:02:31;26.70;;;6.93;;
9467;SDS011;4772;52.382;9.752;2023-11-19T10:04:59;18.80;;;4.63;;
9467;SDS011;4772;52.382;9.752;2023-11-19T10:07:26;22.00;;;5.17;;
9467;SDS011;4772;52.382;9.752;2023-11-19T10:09:52;21.20;;;5.07;;
9467;SDS011;4772;52.382;9.752;2023-11-19T10:12:18;25.77;;;5.27;;
9467;SDS011;4772;52.382;9.752;2023-11-19T10:14:44;24.33;;;5.67;;
9467;SDS011;4772;52.382;9.752;2023-11-19T10:17:11;26.63;;;5.70;;
9467;SDS011;4772;52.382;9.752;2023-11-19T10:19:39;22.07;;;6.00;;
9467;SDS011;4772;52.382;9.752;2023-11-19T10:22:06;22.13;;;5.63;;
9467;SDS011;4772;52.382;9.752;2023-11-19T10:24:33;26.87;;;5.97;;
9467;SDS011;4772;52.382;9.752;2023-11-19T10:26:59;23.30;;;5.83;;
9467;SDS011;4772;52.382;9.752;2023-11-19T10:29:29;21.67;;;5.17;;
9467;SDS011;4772;52.382;9.752;2023-11-19T10:31:55;21.27;;;5.37;;
9467;SDS011;4772;52.382;9.752;2023-11-19T10:34:25;24.30;;;5.43;;
9467;SDS011;4772;52.382;9.752;2023-11-19T10:36:51;24.47;;;5.73;;
9467;SDS011;4772;52.382;9.752;2023-11-19T10:39:18;16.23;;;5.07;;
9467;SDS011;4772;52.382;9.752;2023-11-19T10:41:45;16.97;;;4.60;;
9467;SDS011;4772;52.382;9.752;2023-11-19T10:44:11;16.60;;;4.37;;
9467;SDS011;4772;52.382;9.752;2023-11-19T10:46:41;21.20;;;4.77;;
9467;SDS011;4772;52.382;9.752;2023-11-19T10:49:08;17.57;;;4.70;;
9467;SDS011;4772;52.382;9.752;2023-11-19T10:51:35;14.70;;;4.20;;
9467;SDS011;4772;52.382;9.752;2023-11-19T10:54:05;16.23;;;4.80;;
9467;SDS011;4772;52.382;9.752;2023-11-19T10:56:32;17.10;;;4.13;;
9467;SDS011;4772;52.382;9.752;2023-11-19T10:59:01;18.13;;;4.70;;
9467;SDS011;4772;52.382;9.752;2023-11-19T11:01:37;17.30;;;4.53;;
9467;SDS011;4772;52.382;9.752;2023-11-19T11:04:05;18.77;;;5.20;;
9467;SDS011;4772;52.382;9.752;2023-11-19T11:06:36;18.57;;;4.87;;
9467;SDS011;4772;52.382;9.752;2023-11-19T11:09:02;20.87;;;4.77;;
9467;SDS011;4772;52.382;9.752;2023-11-19T11:11:31;17.90;;;4.70;;
9467;SDS011;4772;52.382;9.752;2023-11-19T11:13:57;19.83;;;4.83;;
9467;SDS011;4772;52.382;9.752;2023-11-19T11:16:25;18.87;;;4.97;;
9467;SDS011;4772;52.382;9.752;2023-11-19T11:18:51;18.00;;;5.13;;
9467;SDS011;4772;52.382;9.752;2023-11-19T11:21:20;20.13;;;5.50;;
9467;SDS011;4772;52.382;9.752;2023-11-19T11:29:31;18.07;;;5.07;;
9467;SDS011;4772;52.382;9.752;2023-11-19T11:35:12;20.17;;;5.37;;
9467;SDS011;4772;52.382;9.752;2023-11-19T11:37:44;22.57;;;5.23;;
9467;SDS011;4772;52.382;9.752;2023-11-19T11:40:16;20.73;;;4.97;;
9467;SDS011;4772;52.382;9.752;2023-11-19T11:42:43;16.97;;;5.47;;
9467;SDS011;4772;52.382;9.752;2023-11-19T11:45:10;19.53;;;5.40;;
9467;SDS011;4772;52.382;9.752;2023-11-19T11:50:15;23.87;;;5.33;;
9467;SDS011;4772;52.382;9.752;2023-11-19T11:55:25;23.63;;;5.77;;
9467;SDS011;4772;52.382;9.752;2023-11-19T11:57:51;24.73;;;5.83;;
9467;SDS011;4772;52.382;9.752;2023-11-19T12:02:49;25.38;;;6.20;;
9467;SDS011;4772;52.382;9.752;2023-11-19T12:05:15;26.80;;;6.37;;
9467;SDS011;4772;52.382;9.752;2023-11-19T12:07:44;21.30;;;5.20;;
9467;SDS011;4772;52.382;9.752;2023-11-19T12:10:20;18.90;;;4.73;;
9467;SDS011;4772;52.382;9.752;2023-11-19T12:12:47;25.97;;;5.70;;
9467;SDS011;4772;52.382;9.752;2023-11-19T12:15:13;19.70;;;5.33;;
9467;SDS011;4772;52.382;9.752;2023-11-19T12:17:47;25.17;;;5.50;;
9467;SDS011;4772;52.382;9.752;2023-11-19T12:20:20;26.93;;;6.10;;
9467;SDS011;4772;52.382;9.752;2023-11-19T12:22:46;27.60;;;6.30;;
9467;SDS011;4772;52.382;9.752;2023-11-19T12:25:14;24.40;;;5.63;;
9467;SDS011;4772;52.382;9.752;2023-11-19T12:27:45;29.20;;;5.50;;
9467;SDS011;4772;52.382;9.752;2023-11-19T12:30:11;24.77;;;5.63;;
9467;SDS011;4772;52.382;9.752;2023-11-19T12:32:44;21.10;;;4.40;;
9467;SDS011;4772;52.382;9.752;2023-11-19T12:35:11;18.63;;;4.87;;
9467;SDS011;4772;52.382;9.752;2023-11-19T12:37:47;19.80;;;4.93;;
9467;SDS011;4772;52.382;9.752;2023-11-19T12:40:17;26.83;;;5.70;;
9467;SDS011;4772;52.382;9.752;2023-11-19T12:42:47;22.30;;;5.10;;
9467;SDS011;4772;52.382;9.752;2023-11-19T12:45:13;26.63;;;4.93;;
9467;SDS011;4772;52.382;9.752;2023-11-19T12:47:41;23.13;;;5.07;;
9467;SDS011;4772;52.382;9.752;2023-11-19T12:50:07;23.73;;;5.60;;
9467;SDS011;4772;52.382;9.752;2023-11-19T12:52:34;20.13;;;5.30;;
9467;SDS011;4772;52.382;9.752;2023-11-19T12:55:00;24.03;;;5.60;;
9467;SDS011;4772;52.382;9.752;2023-11-19T12:57:36;23.43;;;5.43;;
9467;SDS011;4772;52.382;9.752;2023-11-19T13:00:02;19.83;;;4.77;;
9467;SDS011;4772;52.382;9.752;2023-11-19T13:05:21;16.13;;;4.77;;
9467;SDS011;4772;52.382;9.752;2023-11-19T13:07:47;21.20;;;4.73;;
9467;SDS011;4772;52.382;9.752;2023-11-19T13:10:13;18.30;;;4.97;;
9467;SDS011;4772;52.382;9.752;2023-11-19T13:12:42;20.77;;;5.03;;
9467;SDS011;4772;52.382;9.752;2023-11-19T13:15:22;23.43;;;4.97;;
9467;SDS011;4772;52.382;9.752;2023-11-19T13:17:48;19.77;;;4.23;;
9467;SDS011;4772;52.382;9.752;2023-11-19T13:20:14;22.10;;;5.03;;
9467;SDS011;4772;52.382;9.752;2023-11-19T13:22:55;22.23;;;5.00;;
9467;SDS011;4772;52.382;9.752;2023-11-19T13:25:21;18.87;;;5.07;;
9467;SDS011;4772;52.382;9.752;2023-11-19T13:27:47;21.73;;;4.93;;
9467;SDS011;4772;52.382;9.752;2023-11-19T13:30:14;23.27;;;5.60;;
9467;SDS011;4772;52.382;9.752;2023-11-19T13:32:40;19.70;;;5.23;;
9467;SDS011;4772;52.382;9.752;2023-11-19T13:35:06;16.27;;;5.00;;
9467;SDS011;4772;52.382;9.752;2023-11-19T13:37:34;20.83;;;5.63;;
9467;SDS011;4772;52.382;9.752;2023-11-19T13:40:00;23.00;;;5.90;;
9467;SDS011;4772;52.382;9.752;2023-11-19T13:42:26;18.27;;;5.20;;
9467;SDS011;4772;52.382;9.752;2023-11-19T13:44:52;21.43;;;5.50;;
9467;SDS011;4772;52.382;9.752;2023-11-19T13:47:18;28.07;;;6.00;;
9467;SDS011;4772;52.382;9.752;2023-11-19T13:49:44;22.00;;;6.30;;
9467;SDS011;4772;52.382;9.752;2023-11-19T13:52:10;24.50;;;5.80;;
9467;SDS011;4772;52.382;9.752;2023-11-19T13:54:37;24.10;;;5.87;;
9467;SDS011;4772;52.382;9.752;2023-11-19T13:57:04;22.63;;;5.73;;
9467;SDS011;4772;52.382;9.752;2023-11-19T13:59:30;21.90;;;5.73;;
9467;SDS011;4772;52.382;9.752;2023-11-19T14:01:59;23.30;;;5.87;;
9467;SDS011;4772;52.382;9.752;2023-11-19T14:04:25;24.00;;;5.90;;
9467;SDS011;4772;52.382;9.752;2023-11-19T14:06:51;26.33;;;5.90;;
9467;SDS011;4772;52.382;9.752;2023-11-19T14:09:20;20.23;;;5.73;;
9467;SDS011;4772;52.382;9.752;2023-11-19T14:11:46;23.90;;;6.17;;
9467;SDS011;4772;52.382;9.752;2023-11-19T14:14:13;21.70;;;5.93;;
9467;SDS011;4772;52.382;9.752;2023-11-19T14:16:39;22.17;;;5.80;;
9467;SDS011;4772;52.382;9.752;2023-11-19T14:19:05;25.27;;;6.13;;
9467;SDS011;4772;52.382;9.752;2023-11-19T14:21:31;25.37;;;5.90;;
9467;SDS011;4772;52.382;9.752;2023-11-19T14:23:57;21.30;;;5.27;;
9467;SDS011;4772;52.382;9.752;2023-11-19T14:26:24;17.33;;;5.70;;
9467;SDS011;4772;52.382;9.752;2023-11-19T14:28:50;20.83;;;5.83;;
9467;SDS011;4772;52.382;9.752;2023-11-19T14:31:16;24.37;;;6.47;;
9467;SDS011;4772;52.382;9.752;2023-11-19T14:33:42;22.33;;;5.33;;
9467;SDS011;4772;52.382;9.752;2023-11-19T14:36:08;20.90;;;5.77;;
9467;SDS011;4772;52.382;9.752;2023-11-19T14:38:34;24.63;;;5.47;;
9467;SDS011;4772;52.382;9.752;2023-11-19T14:41:00;19.93;;;5.27;;
9467;SDS011;4772;52.382;9.752;2023-11-19T14:43:26;20.30;;;6.10;;
9467;SDS011;4772;52.382;9.752;2023-11-19T14:45:52;19.67;;;5.23;;
9467;SDS011;4772;52.382;9.752;2023-11-19T14:48:18;21.50;;;5.37;;
9467;SDS011;4772;52.382;9.752;2023-11-19T14:50:44;25.83;;;6.83;;
9467;SDS011;4772;52.382;9.752;2023-11-19T14:53:10;29.37;;;6.23;;
9467;SDS011;4772;52.382;9.752;2023-11-19T14:55:36;21.07;;;5.27;;
9467;SDS011;4772;52.382;9.752;2023-11-19T14:58:02;23.50;;;4.93;;
9467;SDS011;4772;52.382;9.752;2023-11-19T15:00:28;17.07;;;4.30;;
9467;SDS011;4772;52.382;9.752;2023-11-19T15:02:54;20.03;;;4.50;;
9467;SDS011;4772;52.382;9.752;2023-11-19T15:05:21;16.27;;;4.63;;
9467;SDS011;4772;52.382;9.752;2023-11-19T15:07:47;19.37;;;4.63;;
9467;SDS011;4772;52.382;9.752;2023-11-19T15:10:13;20.00;;;4.93;;
9467;SDS011;4772;52.382;9.752;2023-11-19T15:12:39;18.13;;;5.03;;
9467;SDS011;4772;52.382;9.752;2023-11-19T15:15:08;22.97;;;5.80;;
9467;SDS011;4772;52.382;9.752;2023-11-19T15:17:35;23.00;;;5.93;;
9467;SDS011;4772;52.382;9.752;2023-11-19T15:20:04;23.40;;;6.10;;
9467;SDS011;4772;52.382;9.752;2023-11-19T15:22:30;24.80;;;6.93;;